createdAt,value
2022-10-22T00:01:41.125Z,5.24
2022-10-22T00:07:49.793Z,5.17
2022-10-22T00:10:52.894Z,5.10
2022-10-22T00:13:54.801Z,5.01
2022-10-22T00:16:56.706Z,4.96
2022-10-22T00:19:58.400Z,4.88
2022-10-22T00:23:00.161Z,4.82
2022-10-22T00:26:02.356Z,4.73
2022-10-22T00:29:04.500Z,4.70
2022-10-22T00:32:06.514Z,4.67
2022-10-22T00:35:08.427Z,4.55
2022-10-22T00:38:10.319Z,4.54
2022-10-22T00:41:12.058Z,4.51
2022-10-22T00:44:51.683Z,4.57
2022-10-22T00:48:11.876Z,4.61
2022-10-22T00:51:14.273Z,4.54
2022-10-22T00:54:16.030Z,4.45
2022-10-22T00:57:19.907Z,4.43
2022-10-22T01:00:21.968Z,4.39
2022-10-22T01:03:24.298Z,4.33
2022-10-22T01:06:34.213Z,4.30
2022-10-22T01:09:50.990Z,4.37
2022-10-22T01:13:14.578Z,4.30
2022-10-22T01:16:40.477Z,4.25
2022-10-22T01:19:51.409Z,4.21
2022-10-22T01:22:59.630Z,4.09
2022-10-22T01:26:13.303Z,4.03
2022-10-22T01:29:36.910Z,4.02
2022-10-22T01:32:48.314Z,4.06
2022-10-22T01:35:50.818Z,4.12
2022-10-22T01:38:54.160Z,4.08
2022-10-22T01:41:57.052Z,4.04
2022-10-22T01:44:58.830Z,3.97
2022-10-22T01:48:18.785Z,3.99
2022-10-22T01:51:53.343Z,3.92
2022-10-22T01:55:28.903Z,3.92
2022-10-22T01:58:43.491Z,3.76
2022-10-22T02:01:58.968Z,3.65
2022-10-22T02:05:32.931Z,3.67
2022-10-22T02:08:37.077Z,3.64
2022-10-22T02:11:39.811Z,3.48
2022-10-22T02:14:43.898Z,3.58
2022-10-22T02:17:47.198Z,3.58
2022-10-22T02:20:49.623Z,3.57
2022-10-22T02:23:51.701Z,3.57
2022-10-22T02:26:59.418Z,3.60
2022-10-22T02:30:14.186Z,3.63
2022-10-22T02:33:20.851Z,3.61
2022-10-22T02:36:22.994Z,3.64
2022-10-22T02:39:25.822Z,3.55
2022-10-22T02:42:28.798Z,3.48
2022-10-22T02:45:31.063Z,3.46
2022-10-22T02:48:32.856Z,3.46
2022-10-22T02:51:34.747Z,3.43
2022-10-22T02:54:36.514Z,3.40
2022-10-22T02:57:38.489Z,3.39
2022-10-22T03:00:40.422Z,3.36
2022-10-22T03:03:42.181Z,3.33
2022-10-22T03:06:44.738Z,3.29
2022-10-22T03:09:46.744Z,3.24
2022-10-22T03:12:48.429Z,3.21
2022-10-22T03:15:50.973Z,3.18
2022-10-22T03:18:52.749Z,3.15
2022-10-22T03:21:59.616Z,3.16
2022-10-22T03:25:08.005Z,3.15
2022-10-22T03:28:13.848Z,3.09
2022-10-22T03:31:15.727Z,3.01
2022-10-22T03:34:17.505Z,2.98
2022-10-22T03:37:20.115Z,2.98
2022-10-22T03:40:22.140Z,2.94
2022-10-22T03:43:23.904Z,2.90
2022-10-22T03:46:25.607Z,2.82
2022-10-22T03:49:27.332Z,2.77
2022-10-22T03:52:29.123Z,2.71
2022-10-22T03:55:30.847Z,2.67
2022-10-22T03:58:32.592Z,2.63
2022-10-22T04:01:34.417Z,2.60
2022-10-22T04:04:37.355Z,2.62
2022-10-22T04:07:39.490Z,2.60
2022-10-22T04:10:41.329Z,2.54
2022-10-22T04:13:43.968Z,2.53
2022-10-22T04:16:46.309Z,2.52
2022-10-22T04:19:48.494Z,2.47
2022-10-22T04:22:50.368Z,2.48
2022-10-22T04:25:58.616Z,2.52
2022-10-22T04:29:00.592Z,2.47
2022-10-22T04:32:02.298Z,2.45
2022-10-22T04:35:04.373Z,2.44
2022-10-22T04:38:06.148Z,2.42
2022-10-22T04:41:18.896Z,2.41
2022-10-22T04:44:20.670Z,2.36
2022-10-22T04:47:22.623Z,2.33
2022-10-22T04:50:24.506Z,2.32
2022-10-22T04:53:27.785Z,2.30
2022-10-22T04:56:31.506Z,2.28
2022-10-22T04:59:33.255Z,2.24
2022-10-22T05:02:35.035Z,2.22
2022-10-22T05:05:36.804Z,2.23
2022-10-22T05:08:39.160Z,2.27
2022-10-22T05:11:43.337Z,2.25
2022-10-22T05:14:45.144Z,2.22
2022-10-22T05:17:46.889Z,2.13
2022-10-22T05:20:48.662Z,2.16
2022-10-22T05:23:51.243Z,2.19
2022-10-22T05:26:54.423Z,2.20
2022-10-22T05:29:56.634Z,2.18
2022-10-22T05:32:58.335Z,2.16
2022-10-22T05:36:02.338Z,2.20
2022-10-22T05:39:04.348Z,2.18
2022-10-22T05:42:06.361Z,2.25
2022-10-22T05:45:08.953Z,2.31
2022-10-22T05:48:10.782Z,2.37
2022-10-22T05:51:13.408Z,2.44
2022-10-22T05:54:20.138Z,2.51
2022-10-22T05:57:21.736Z,2.60
2022-10-22T06:00:23.467Z,2.54
2022-10-22T06:03:25.965Z,2.55
2022-10-22T06:06:43.390Z,2.69
2022-10-22T06:09:45.117Z,2.72
2022-10-22T06:12:47.930Z,2.81
2022-10-22T06:15:52.674Z,2.90
2022-10-22T06:18:54.536Z,2.96
2022-10-22T06:21:56.336Z,3.08
2022-10-22T06:24:58.409Z,3.13
2022-10-22T06:28:00.225Z,3.19
2022-10-22T06:31:03.459Z,3.47
2022-10-22T06:34:07.174Z,3.63
2022-10-22T06:37:09.955Z,3.82
2022-10-22T06:40:12.387Z,4.07
2022-10-22T06:43:15.008Z,4.40
2022-10-22T06:46:20.231Z,4.77
2022-10-22T06:49:22.148Z,4.92
2022-10-22T06:52:23.973Z,5.13
2022-10-22T06:55:25.659Z,5.32
2022-10-22T06:58:27.429Z,5.38
2022-10-22T07:01:32.524Z,5.36
2022-10-22T07:04:34.237Z,5.26
2022-10-22T07:07:35.958Z,5.36
2022-10-22T07:10:37.671Z,5.32
2022-10-22T07:13:39.992Z,5.32
2022-10-22T07:16:43.121Z,5.39
2022-10-22T07:19:48.425Z,5.34
2022-10-22T07:22:52.937Z,5.37
2022-10-22T07:28:57.204Z,5.48
2022-10-22T07:31:59.165Z,5.38
2022-10-22T07:35:01.186Z,5.48
2022-10-22T07:38:03.026Z,5.71
2022-10-22T07:41:05.069Z,5.71
2022-10-22T07:44:06.816Z,5.68
2022-10-22T07:47:08.475Z,5.72
2022-10-22T07:50:10.415Z,5.67
2022-10-22T07:53:14.438Z,5.73
2022-10-22T07:56:16.329Z,5.60
2022-10-22T07:59:18.195Z,5.81
2022-10-22T08:02:19.949Z,5.83
2022-10-22T08:05:21.706Z,5.97
2022-10-22T08:08:27.120Z,6.09
2022-10-22T08:11:33.528Z,6.31
2022-10-22T08:14:35.705Z,6.50
2022-10-22T08:17:37.451Z,6.78
2022-10-22T08:20:39.845Z,6.79
2022-10-22T08:23:41.681Z,6.81
2022-10-22T08:26:43.480Z,7.01
2022-10-22T08:29:45.352Z,6.99
2022-10-22T08:32:49.335Z,7.10
2022-10-22T08:35:53.683Z,7.39
2022-10-22T08:38:55.420Z,7.57
2022-10-22T08:42:20.518Z,7.83
2022-10-22T08:45:33.847Z,7.84
2022-10-22T08:48:44.338Z,8.12
2022-10-22T08:51:46.579Z,8.16
2022-10-22T08:54:54.841Z,8.19
2022-10-22T08:58:06.265Z,8.16
2022-10-22T09:01:15.053Z,8.30
2022-10-22T09:04:45.191Z,8.45
2022-10-22T09:07:50.215Z,8.45
2022-10-22T09:11:27.369Z,8.66
2022-10-22T09:14:30.045Z,8.62
2022-10-22T09:17:45.507Z,8.64
2022-10-22T09:20:56.700Z,8.84
2022-10-22T09:24:04.991Z,8.56
2022-10-22T09:27:17.963Z,8.61
2022-10-22T09:30:23.202Z,8.29
2022-10-22T09:33:27.770Z,8.45
2022-10-22T09:36:30.081Z,8.38
2022-10-22T09:39:45.175Z,8.52
2022-10-22T09:42:47.733Z,8.27
2022-10-22T09:46:01.378Z,8.32
2022-10-22T09:49:11.100Z,8.19
2022-10-22T09:52:28.532Z,8.23
2022-10-22T09:55:30.320Z,8.10
2022-10-22T09:58:42.854Z,7.97
2022-10-22T10:01:44.996Z,8.09
2022-10-22T10:04:56.029Z,8.24
2022-10-22T10:07:59.397Z,8.33
2022-10-22T10:11:29.374Z,8.45
2022-10-22T10:14:51.886Z,8.49
2022-10-22T10:18:08.811Z,8.67
2022-10-22T10:21:34.063Z,8.70
2022-10-22T10:24:44.488Z,8.67
2022-10-22T10:28:27.617Z,8.91
2022-10-22T10:31:29.294Z,8.93
2022-10-22T10:34:39.576Z,9.33
2022-10-22T10:38:00.180Z,9.51
2022-10-22T10:41:13.109Z,9.52
2022-10-22T10:44:33.224Z,9.46
2022-10-22T10:48:16.679Z,9.77
2022-10-22T10:51:50.681Z,9.71
2022-10-22T10:55:14.051Z,9.89
2022-10-22T10:58:25.735Z,10.13
2022-10-22T11:02:10.139Z,10.49
2022-10-22T11:05:21.044Z,10.73
2022-10-22T11:08:36.582Z,-149.13
2022-10-22T11:11:47.394Z,-149.13
2022-10-22T11:15:27.523Z,-149.13
2022-10-22T11:18:35.752Z,-149.13
2022-10-22T11:21:47.423Z,-149.13
2022-10-22T11:25:01.725Z,-149.13
2022-10-22T11:28:10.401Z,-149.13
2022-10-22T11:31:17.560Z,-149.13
2022-10-22T11:34:40.145Z,-149.13
2022-10-22T11:37:45.200Z,-149.13
2022-10-22T11:41:00.444Z,-149.13
2022-10-22T11:44:23.721Z,-149.13
2022-10-22T11:47:32.263Z,-149.13
2022-10-22T11:51:00.117Z,-149.13
2022-10-22T11:54:23.412Z,-149.13
2022-10-22T11:57:37.143Z,-149.13
2022-10-22T12:00:48.264Z,-149.13
2022-10-22T12:03:51.739Z,-149.13
2022-10-22T12:07:02.967Z,-149.13
2022-10-22T12:10:20.201Z,-149.13
2022-10-22T12:13:25.036Z,-149.13
2022-10-22T12:16:54.778Z,-149.13
2022-10-22T12:20:11.634Z,-149.13
2022-10-22T12:23:14.299Z,-149.13
2022-10-22T12:29:33.101Z,-149.13
2022-10-22T12:32:41.434Z,-149.13
2022-10-22T12:35:45.548Z,-149.13
2022-10-22T12:38:47.436Z,-149.13
2022-10-22T12:41:51.126Z,-149.13
2022-10-22T12:44:56.694Z,-149.13
2022-10-22T12:48:02.127Z,-149.13
2022-10-22T12:51:08.141Z,-149.13
2022-10-22T12:54:26.927Z,-149.13
2022-10-22T12:57:29.210Z,-149.13
2022-10-22T13:00:34.872Z,-149.13
2022-10-22T13:03:42.111Z,-149.13
2022-10-22T13:06:45.679Z,-149.13
2022-10-22T13:09:59.024Z,-149.13
2022-10-22T13:13:06.853Z,-149.13
2022-10-22T13:16:20.421Z,-149.13
2022-10-22T13:20:02.228Z,-149.13
2022-10-22T13:23:06.201Z,-149.13
2022-10-22T13:26:16.488Z,-149.13
2022-10-22T13:29:20.399Z,-149.13
2022-10-22T13:32:32.587Z,-149.13
2022-10-22T13:35:37.581Z,-149.13
2022-10-22T13:38:41.451Z,-149.13
2022-10-22T13:41:43.646Z,-149.13
2022-10-22T13:44:45.521Z,-149.13
2022-10-22T13:47:53.334Z,-149.13
2022-10-22T13:50:55.536Z,-149.13
2022-10-22T13:54:00.227Z,-149.13
2022-10-22T13:57:01.911Z,-149.13
2022-10-22T14:00:04.160Z,-149.13
2022-10-22T14:03:16.653Z,-149.13
2022-10-22T14:06:21.043Z,-149.13
2022-10-22T14:09:22.856Z,-149.13
2022-10-22T14:12:25.165Z,-149.13
2022-10-22T14:15:28.679Z,-149.13
2022-10-22T14:18:32.673Z,-149.13
2022-10-22T14:21:37.335Z,-149.13
2022-10-22T14:24:39.161Z,-149.13
2022-10-22T14:27:41.114Z,-149.13
2022-10-22T14:30:43.671Z,-149.13
2022-10-22T14:33:45.866Z,-149.13
2022-10-22T14:36:47.591Z,-149.13
2022-10-22T14:39:52.786Z,-149.13
2022-10-22T14:42:54.783Z,-149.13
2022-10-22T14:45:57.368Z,-149.13
2022-10-22T14:48:59.128Z,-149.13
2022-10-22T14:52:01.011Z,-149.13
2022-10-22T14:55:03.001Z,-149.13
2022-10-22T14:58:04.973Z,-149.13
2022-10-22T15:01:07.873Z,-149.13
2022-10-22T15:04:09.680Z,-149.13
2022-10-22T15:07:12.745Z,-149.13
2022-10-22T15:10:17.372Z,-149.13
2022-10-22T15:16:26.066Z,-149.13
2022-10-22T15:19:29.363Z,-149.13
2022-10-22T15:22:34.985Z,-149.13
2022-10-22T15:25:36.757Z,-149.13
2022-10-22T15:28:40.319Z,-149.13
2022-10-22T15:31:53.575Z,-149.13
2022-10-22T15:34:56.148Z,-149.13
2022-10-22T15:37:57.921Z,-149.13
2022-10-22T15:41:06.843Z,-149.13
2022-10-22T15:44:15.241Z,-149.13
2022-10-22T15:47:17.747Z,-149.13
2022-10-22T15:50:19.543Z,-149.13
2022-10-22T15:53:21.190Z,-149.13
2022-10-22T15:56:23.860Z,-149.13
2022-10-22T15:59:26.062Z,-149.13
2022-10-22T16:02:27.772Z,-149.13
2022-10-22T16:05:29.516Z,-149.13
2022-10-22T16:08:31.500Z,-149.13
2022-10-22T16:11:33.711Z,-149.13
2022-10-22T16:14:35.463Z,10.73
2022-10-22T16:17:37.296Z,7.63
2022-10-22T16:20:40.077Z,7.61
2022-10-22T16:23:42.627Z,7.55
2022-10-22T16:26:44.481Z,7.53
2022-10-22T16:29:46.188Z,7.50
2022-10-22T16:32:47.957Z,7.45
2022-10-22T16:35:50.024Z,7.41
2022-10-22T16:38:51.868Z,7.44
2022-10-22T16:41:53.623Z,7.47
2022-10-22T16:44:55.395Z,7.51
2022-10-22T16:47:57.101Z,7.53
2022-10-22T16:50:59.878Z,7.44
2022-10-22T16:54:03.665Z,7.33
2022-10-22T16:57:07.410Z,7.20
2022-10-22T17:00:09.897Z,7.09
2022-10-22T17:03:12.143Z,6.95
2022-10-22T17:06:14.746Z,6.89
2022-10-22T17:09:16.698Z,6.82
2022-10-22T17:12:18.540Z,6.69
2022-10-22T17:15:20.262Z,6.61
2022-10-22T17:18:21.979Z,6.49
2022-10-22T17:21:24.787Z,6.45
2022-10-22T17:24:26.554Z,6.37
2022-10-22T17:27:28.270Z,6.32
2022-10-22T17:30:30.500Z,6.28
2022-10-22T17:33:34.071Z,6.23
2022-10-22T17:36:36.935Z,6.17
2022-10-22T17:39:39.100Z,6.09
2022-10-22T17:42:41.195Z,6.06
2022-10-22T17:45:43.137Z,6.09
2022-10-22T17:48:48.387Z,6.04
2022-10-22T17:51:50.368Z,6.03
2022-10-22T17:54:53.223Z,6.02
2022-10-22T17:57:55.064Z,6.13
2022-10-22T18:00:57.905Z,6.09
2022-10-22T18:04:02.722Z,6.07
2022-10-22T18:07:04.383Z,5.98
2022-10-22T18:10:07.008Z,5.93
2022-10-22T18:13:08.806Z,5.83
2022-10-22T18:16:10.618Z,5.76
2022-10-22T18:19:15.769Z,5.69
2022-10-22T18:22:17.609Z,5.59
2022-10-22T18:25:19.320Z,5.53
2022-10-22T18:28:21.188Z,5.55
2022-10-22T18:31:24.468Z,5.60
2022-10-22T18:34:27.590Z,5.66
2022-10-22T18:37:30.737Z,5.68
2022-10-22T18:40:33.088Z,5.74
2022-10-22T18:43:35.851Z,5.63
2022-10-22T18:46:39.623Z,5.57
2022-10-22T18:49:41.356Z,5.56
2022-10-22T18:52:43.417Z,5.53
2022-10-22T18:55:45.292Z,5.54
2022-10-22T18:58:48.814Z,5.51
2022-10-22T19:01:55.409Z,5.56
2022-10-22T19:04:57.039Z,5.54
2022-10-22T19:07:58.844Z,-149.13
2022-10-22T19:11:00.988Z,5.39
2022-10-22T19:14:03.312Z,5.38
2022-10-22T19:17:05.037Z,5.28
2022-10-22T19:20:07.186Z,5.22
2022-10-22T19:23:08.865Z,5.13
2022-10-22T19:26:14.696Z,5.06
2022-10-22T19:29:18.325Z,4.99
2022-10-22T19:32:20.254Z,4.92
2022-10-22T19:35:22.402Z,4.90
2022-10-22T19:38:29.640Z,4.86
2022-10-22T19:41:32.819Z,4.82
2022-10-22T19:44:34.555Z,4.80
2022-10-22T19:47:36.512Z,4.77
2022-10-22T19:50:38.244Z,4.69
2022-10-22T19:53:41.102Z,4.65
2022-10-22T19:56:42.864Z,4.59
2022-10-22T19:59:45.782Z,4.57
2022-10-22T20:02:47.515Z,4.47
2022-10-22T20:05:51.152Z,4.49
2022-10-22T20:08:55.969Z,4.41
2022-10-22T20:11:58.220Z,4.40
2022-10-22T20:15:01.815Z,4.42
2022-10-22T20:18:03.622Z,4.47
2022-10-22T20:21:12.009Z,4.48
2022-10-22T20:24:14.027Z,4.45
2022-10-22T20:27:15.764Z,4.41
2022-10-22T20:30:19.570Z,4.43
2022-10-22T20:33:23.204Z,4.43
2022-10-22T20:36:26.026Z,4.49
2022-10-22T20:39:27.703Z,4.50
2022-10-22T20:42:29.522Z,4.47
2022-10-22T20:45:31.539Z,4.46
2022-10-22T20:48:33.587Z,4.43
2022-10-22T20:51:37.150Z,4.44
2022-10-22T20:54:42.435Z,4.34
2022-10-22T20:57:44.536Z,4.37
2022-10-22T21:00:47.490Z,4.45
2022-10-22T21:03:51.823Z,4.48
2022-10-22T21:06:54.294Z,4.50
2022-10-22T21:09:55.984Z,4.49
2022-10-22T21:12:58.043Z,4.47
2022-10-22T21:15:59.991Z,4.52
2022-10-22T21:19:01.924Z,4.50
2022-10-22T21:22:03.732Z,4.49
2022-10-22T21:25:06.032Z,4.46
2022-10-22T21:28:07.969Z,4.55
2022-10-22T21:31:11.195Z,4.57
2022-10-22T21:34:13.987Z,4.49
2022-10-22T21:37:15.667Z,4.43
2022-10-22T21:40:17.497Z,4.50
2022-10-22T21:43:19.796Z,4.46
2022-10-22T21:46:26.952Z,4.41
2022-10-22T21:49:28.742Z,4.29
2022-10-22T21:52:30.452Z,4.27
2022-10-22T21:55:39.980Z,4.30
2022-10-22T21:58:42.041Z,4.20
2022-10-22T22:01:44.038Z,4.20
2022-10-22T22:04:46.113Z,4.19
2022-10-22T22:07:47.912Z,4.21
2022-10-22T22:10:49.645Z,4.20
2022-10-22T22:13:52.650Z,4.19
2022-10-22T22:16:54.415Z,4.17
2022-10-22T22:19:56.742Z,4.15
2022-10-22T22:22:58.648Z,4.11
2022-10-22T22:26:01.564Z,4.08
2022-10-22T22:29:04.407Z,4.05
2022-10-22T22:32:06.324Z,4.02
2022-10-22T22:35:08.350Z,4.00
2022-10-22T22:38:10.185Z,4.02
2022-10-22T22:41:11.878Z,4.02
2022-10-22T22:44:13.751Z,3.99
2022-10-22T22:47:18.128Z,3.96
2022-10-22T22:50:19.999Z,3.82
2022-10-22T22:53:21.776Z,3.82
2022-10-22T22:56:27.890Z,3.89
2022-10-22T22:59:29.630Z,3.87
2022-10-22T23:02:31.459Z,3.80
2022-10-22T23:05:36.575Z,3.83
2022-10-22T23:08:38.947Z,3.75
2022-10-22T23:11:43.256Z,3.74
2022-10-22T23:14:45.266Z,3.67
2022-10-22T23:17:46.967Z,3.63
2022-10-22T23:20:48.731Z,3.60
2022-10-22T23:23:53.741Z,3.67
2022-10-22T23:26:59.797Z,3.67
2022-10-22T23:30:01.500Z,3.64
2022-10-22T23:33:03.265Z,3.63
2022-10-22T23:36:08.124Z,3.62
2022-10-22T23:39:12.403Z,3.65
2022-10-22T23:42:14.127Z,3.63
2022-10-22T23:45:15.878Z,3.60
2022-10-22T23:48:18.324Z,3.64
2022-10-22T23:51:20.623Z,3.60
2022-10-22T23:54:22.376Z,3.53
2022-10-22T23:57:24.106Z,3.52
